Terminal Aerodrome Forecast
Issued by NWS

Home | Current Version | Previous Version | Text Only | Print | Product List | Glossary On
Versions: 1 2 3 4 5 6 7 8 9 10 11 12 13 14
000
FTUS42 TJSJ 031757 AAA
TAFIST
TAF AMD
TIST 031757Z 0318/0418 08018KT P6SM SCT025 SCT035
     FM032300 09010KT P6SM VCSH FEW025 SCT050
     FM041330 10018KT P6SM SCT025 SCT040=

USA.gov is the U.S. government's official web portal to all federal, state and local government web resources and services.